Terminal Aerodrome Forecast
Issued by NWS

Current Version | Previous Version | Text Only | Print | Product List | Glossary On
Versions: 1 2 3 4 5 6 7 8 9 10 11 12 13 14 15 16 17
000
FTUS43 KMPX 211740
TAFRNH
TAF
KRNH 211740Z 2118/2218 15005KT P6SM FEW008
     FM212000 19010KT P6SM FEW250
     FM220000 19005KT P6SM SCT250
     FM220900 18003KT 3SM BR FEW250
     FM221500 21005KT P6SM BKN100=

USA.gov is the U.S. government's official web portal to all federal, state and local government web resources and services.